• Join FlightAware (Why Join?)
  • Login
  • US Flag 
05:30PM EDT


 

Airport Tracker/Info


-or-


 

Live Flight TrackerFlight Track Log ✈ RPA3252 ✈ 13-Jul-2013 ✈ KDCA - KPIT

Flight Track Log - Related Links

Times and Time Zones

All times are in EDT time to prevent confusion due to time zone crossing. See the RPA3252 flight status page for this flight to view local times or setup timezone preferences in your user account.

Time Position Orientation Groundspeed Altitude Reporting Facility
EDT Latitude Longitude Course Direction KTS MPH feet Rate Location/Type
09:03PM 38.8333 -77.0333 326° Northwest 154 177 1,500  Level Potomac TRACON
09:04PM 38.7667 -77.0333 180° South 224 258 3,800 1,620 Climbing Potomac TRACON
09:05PM 39.0421 -77.2149 330° Northwest  Level FlightAware Approximate
09:05PM 38.7333 -77.1000 237° Southwest 283 326 5,000  Level Potomac TRACON
09:06PM 39.1094 -77.2760 322° Northwest  Level FlightAware Approximate
09:06PM 38.8000 -77.1667 322° Northwest 304 350 5,900  Level Potomac TRACON
09:07PM 39.1723 -77.3381 326° Northwest  Level FlightAware Approximate
09:07PM 38.8667 -77.2333 322° Northwest 307 353 9,100  Level Potomac TRACON
09:08PM 39.2410 -77.3970 326° Northwest  Level FlightAware Approximate
09:08PM 38.9167 -77.2833 322° Northwest 315 362 11,300  Level Potomac TRACON
09:10PM 39.0803 -77.4606 320° Northwest 353 406 14,200 1,680 Climbing Washington Center
09:11PM 39.1564 -77.5242 327° Northwest 353 406 16,800 2,100 Climbing Washington Center
09:12PM 39.2425 -77.6014 325° Northwest 364 419 18,500 1,560 Climbing Washington Center
09:13PM 39.3289 -77.6792 325° Northwest 377 434 20,000 480 Climbing Washington Center
09:15PM 39.5386 -77.8725 325° Northwest 412 474 20,000  Level Cleveland Center
09:16PM 39.5856 -78.0053 295° West 398 458 20,000  Level Cleveland Center
09:17PM 39.6242 -78.1439 290° West 398 458 20,000  Level Cleveland Center
09:18PM 39.6644 -78.2828 291° West 411 473 20,000  Level Cleveland Center
09:19PM 39.7069 -78.4244 291° West 417 480 20,000  Level Cleveland Center
09:20PM 39.7447 -78.5608 290° West 417 480 20,000  Level Cleveland Center
09:21PM 39.7847 -78.7000 291° West 417 480 20,000  Level Cleveland Center
09:22PM 39.8244 -78.8397 290° West 417 480 20,000 -60 Level Cleveland Center
09:23PM 39.8594 -78.9550 292° West 417 480 19,900 -840 Descending Cleveland Center
09:24PM 39.9056 -79.1108 291° West 427 491 18,400 -1,800 Descending Cleveland Center
09:25PM 39.9447 -79.2400 292° West 414 476 16,400 -2,100 Descending Cleveland Center
09:26PM 40.0000 -79.3581 301° West 389 448 14,300 -1,740 Descending Cleveland Center
09:27PM 40.0556 -79.4683 303° West 377 434 13,000 -1,260 Descending Cleveland Center
09:28PM 40.1128 -79.5786 304° West 371 427 11,800 -1,200 Descending Cleveland Center
09:29PM 40.1658 -79.6867 303° West 366 421 10,700 -900 Descending Cleveland Center
09:30PM 40.2167 -79.7864 304° West 359 413 10,000 -1,260 Descending Cleveland Center
09:31PM 40.2589 -79.8783 301° West 327 376 8,200 -1,800 Descending Cleveland Center
09:32PM 40.2969 -79.9678 299° West 295 339 6,500 -1,140 Descending Cleveland Center
09:33PM 40.3350 -80.0603 298° West 267 307 6,000 -300 Descending Cleveland Center
09:34PM 40.3750 -80.1525 300° West 267 307 6,000  Level Cleveland Center
09:35PM 40.4044 -80.2422 293° West 272 313 6,000  Level Cleveland Center